Time;durP1;ratioP1;P1;durP2;ratioP2;P2;SDS_P1;SDS_P2;PMS_P1;PMS_P2;Temp;Humidity;BMP_temperature;BMP_pressure;BME280_temperature;BME280_humidity;BME280_pressure;Samples;Min_cycle;Max_cycle;Signal;HPM_P1;HPM_P2
2021/07/12 00:00:22;;;;;;;12.75;7.45;;;;;;;21.21;68.30;99555.33;129996;1088;113580;-58
2021/07/12 00:02:51;;;;;;;9.18;7.48;;;;;;;21.20;68.50;99562.02;130092;1090;23218;-58
2021/07/12 00:05:20;;;;;;;8.95;7.80;;;;;;;21.18;68.41;99553.99;130001;1089;114333;-57
2021/07/12 00:07:50;;;;;;;13.03;7.65;;;;;;;21.17;68.35;99552.36;130062;1088;24136;-58
2021/07/12 00:10:38;;;;;;;25.28;9.15;;;;;;;21.15;68.38;99555.45;130000;1090;113785;-58
2021/07/12 00:13:07;;;;;;;16.30;8.63;;;;;;;21.14;68.27;99555.78;130106;1090;23275;-57
2021/07/12 00:15:56;;;;;;;11.05;7.65;;;;;;;21.12;68.25;99555.29;130112;1088;22626;-57
2021/07/12 00:18:25;;;;;;;11.78;7.70;;;;;;;21.09;68.18;99544.85;130011;1089;113628;-57
2021/07/12 00:21:10;;;;;;;12.70;7.60;;;;;;;21.07;68.38;99553.48;130095;1090;22544;-57
2021/07/12 00:23:39;;;;;;;14.83;7.70;;;;;;;21.05;68.42;99543.91;130005;1089;113756;-57
2021/07/12 00:26:19;;;;;;;13.98;7.60;;;;;;;21.01;68.28;99543.73;130130;1093;23731;-57
2021/07/12 00:28:48;;;;;;;23.53;8.80;;;;;;;20.99;68.53;99543.23;129732;1090;114590;-57
2021/07/12 00:31:36;;;;;;;19.28;8.20;;;;;;;20.97;68.71;99550.24;130105;1090;22654;-56
2021/07/12 00:34:06;;;;;;;13.18;7.90;;;;;;;20.94;68.63;99546.16;130126;1090;23350;-57
2021/07/12 00:36:35;;;;;;;13.50;7.83;;;;;;;20.92;68.54;99540.13;129996;1090;113568;-57
2021/07/12 00:39:07;;;;;;;14.95;8.18;;;;;;;20.91;68.66;99534.94;130081;1090;22567;-50
2021/07/12 00:41:56;;;;;;;13.15;7.60;;;;;;;20.89;68.53;99535.27;129979;1091;113792;-57
2021/07/12 00:44:26;;;;;;;10.73;8.20;;;;;;;20.88;68.84;99541.95;130105;1093;22651;-56
2021/07/12 00:46:55;;;;;;;11.25;8.10;;;;;;;20.89;69.20;99542.76;129975;1092;114180;-57
2021/07/12 00:49:24;;;;;;;9.45;8.15;;;;;;;20.92;69.22;99533.80;130100;1093;22529;-57
2021/07/12 00:51:56;;;;;;;15.38;8.73;;;;;;;20.97;69.44;99541.93;130013;1093;22568;-57
2021/07/12 00:54:27;;;;;;;11.08;8.15;;;;;;;20.98;69.16;99535.25;129935;1093;113906;-57
2021/07/12 00:57:01;;;;;;;13.38;7.88;;;;;;;20.98;68.93;99538.02;130086;1093;23309;-57
2021/07/12 00:59:32;;;;;;;13.73;9.50;;;;;;;20.96;68.72;99529.22;129947;1093;113830;-57
2021/07/12 01:02:03;;;;;;;16.70;9.00;;;;;;;20.95;68.74;99527.59;130099;1092;22612;-56
2021/07/12 01:04:34;;;;;;;13.98;10.10;;;;;;;20.91;68.70;99524.68;129977;1093;113839;-57
2021/07/12 01:07:15;;;;;;;12.05;8.43;;;;;;;20.87;68.93;99520.92;130073;1093;23400;-56
2021/07/12 01:09:44;;;;;;;17.63;8.35;;;;;;;20.83;68.75;99523.52;130081;1092;22633;-57
2021/07/12 01:12:34;;;;;;;9.43;8.43;;;;;;;20.80;68.59;99520.58;129991;1092;114892;-56
2021/07/12 01:15:08;;;;;;;12.03;9.33;;;;;;;20.78;68.79;99520.09;129833;1092;22548;-56
2021/07/12 01:18:13;;;;;;;9.78;8.78;;;;;;;20.77;69.25;99521.26;129910;1092;114311;-56
2021/07/12 01:21:00;;;;;;;17.63;9.03;;;;;;;20.75;69.22;99527.13;130072;1093;22661;-57
2021/07/12 01:24:06;;;;;;;18.20;9.48;;;;;;;20.72;69.53;99529.72;129959;1093;114275;-56
2021/07/12 01:26:56;;;;;;;27.05;9.60;;;;;;;20.66;69.55;99523.52;130059;1091;22554;-56
2021/07/12 01:29:53;;;;;;;24.18;9.38;;;;;;;20.64;69.48;99528.55;129950;1091;113635;-56
2021/07/12 01:32:29;;;;;;;23.73;9.53;;;;;;;20.65;69.97;99530.19;130033;1090;23899;-56
2021/07/12 01:35:39;;;;;;;19.50;8.73;;;;;;;20.66;69.96;99517.16;129946;1090;115550;-56
2021/07/12 01:38:20;;;;;;;17.00;8.65;;;;;;;20.64;70.19;99528.55;129728;1092;22602;-57
2021/07/12 01:41:06;;;;;;;17.83;8.40;;;;;;;20.62;69.83;99530.05;129609;1093;113954;-56
2021/07/12 01:44:00;;;;;;;17.83;9.58;;;;;;;20.59;69.81;99531.50;129749;1093;23445;-56
2021/07/12 01:46:33;;;;;;;9.55;8.40;;;;;;;20.58;69.61;99535.41;129666;1093;114910;-57
2021/07/12 01:49:15;;;;;;;13.50;7.88;;;;;;;20.59;70.06;99534.27;129713;1093;22563;-56
2021/07/12 01:51:57;;;;;;;12.70;8.38;;;;;;;20.58;70.14;99534.59;129734;1093;22578;-56
2021/07/12 01:54:30;;;;;;;12.53;8.45;;;;;;;20.59;70.37;99533.45;129625;1093;113870;-56
2021/07/12 01:57:05;;;;;;;12.00;8.23;;;;;;;20.61;70.17;99539.48;129757;1093;22561;-56
2021/07/12 01:59:53;;;;;;;17.38;9.55;;;;;;;20.62;69.96;99541.12;129638;1093;113867;-57
2021/07/12 02:02:24;;;;;;;11.45;7.95;;;;;;;20.65;69.75;99538.49;129762;1093;22576;-57
2021/07/12 02:05:02;;;;;;;11.58;8.70;;;;;;;20.69;70.04;99538.66;129708;1093;114100;-57
2021/07/12 02:07:31;;;;;;;14.30;8.58;;;;;;;20.75;69.36;99534.61;129874;1092;22642;-57
2021/07/12 02:10:01;;;;;;;10.35;8.98;;;;;;;20.81;69.16;99534.11;129789;1092;22592;-57
2021/07/12 02:12:33;;;;;;;10.98;8.98;;;;;;;20.88;68.53;99539.17;129724;1092;113659;-56
2021/07/12 02:15:04;;;;;;;10.83;8.53;;;;;;;20.96;67.57;99538.34;129935;1090;22661;-56
2021/07/12 02:17:36;;;;;;;12.58;8.85;;;;;;;21.03;67.72;99538.69;130035;1089;114161;-56
2021/07/12 02:20:07;;;;;;;10.08;8.68;;;;;;;21.11;67.97;99532.31;130158;1090;22526;-56
2021/07/12 02:22:37;;;;;;;9.25;8.33;;;;;;;21.16;67.71;99529.38;130134;1090;113940;-56
2021/07/12 02:25:15;;;;;;;12.50;8.85;;;;;;;21.24;66.86;99536.06;130079;1090;22610;-56
2021/07/12 02:27:44;;;;;;;10.53;8.73;;;;;;;21.30;67.70;99529.23;130092;1090;23497;-57
2021/07/12 02:30:15;;;;;;;14.90;9.10;;;;;;;21.36;68.21;99527.08;130008;1089;113739;-57
2021/07/12 02:32:45;;;;;;;11.78;8.75;;;;;;;21.39;68.39;99527.23;130187;1090;23054;-57
2021/07/12 02:35:16;;;;;;;13.90;8.50;;;;;;;21.43;68.68;99525.45;130097;1088;114000;-57
2021/07/12 02:37:47;;;;;;;9.88;7.35;;;;;;;21.45;68.74;99525.94;130178;1090;22567;-57
2021/07/12 02:40:18;;;;;;;12.63;8.20;;;;;;;21.48;68.77;99522.51;130048;1090;113707;-57
2021/07/12 02:42:49;;;;;;;13.28;8.70;;;;;;;21.48;68.96;99518.92;130180;1090;22612;-56
2021/07/12 02:45:18;;;;;;;12.88;8.28;;;;;;;21.54;68.99;99517.58;130465;1089;23446;-57
2021/07/12 02:47:49;;;;;;;12.50;8.45;;;;;;;21.57;69.27;99519.70;130400;1088;113725;-57
2021/07/12 02:50:18;;;;;;;10.95;9.00;;;;;;;21.59;69.53;99513.83;130163;1090;22582;-57
2021/07/12 02:53:14;;;;;;;10.60;7.93;;;;;;;21.60;69.52;99518.23;130041;1090;113986;-57
2021/07/12 02:55:43;;;;;;;12.38;8.55;;;;;;;21.63;67.52;99512.03;130169;1090;22646;-57
2021/07/12 02:58:13;;;;;;;13.25;8.90;;;;;;;21.71;66.46;99513.94;130161;1090;22566;-57
2021/07/12 03:00:43;;;;;;;13.00;9.83;;;;;;;21.77;66.00;99505.13;130326;1088;113541;-57
2021/07/12 03:03:12;;;;;;;8.85;7.93;;;;;;;21.87;65.11;99503.92;130431;1089;22564;-57
2021/07/12 03:05:42;;;;;;;10.55;8.63;;;;;;;21.97;64.67;99497.99;130385;1090;113798;-57
2021/07/12 03:08:14;;;;;;;9.88;8.38;;;;;;;22.10;64.00;99501.71;130478;1089;22518;-56
2021/07/12 03:10:49;;;;;;;15.23;8.58;;;;;;;22.21;63.26;99502.98;130083;1090;114000;-57
2021/07/12 03:13:20;;;;;;;12.83;8.60;;;;;;;22.33;63.56;99505.84;130474;1090;22552;-57
2021/07/12 03:15:52;;;;;;;11.23;8.30;;;;;;;22.44;63.61;99497.92;130455;1088;23438;-56
2021/07/12 03:18:29;;;;;;;15.78;8.15;;;;;;;22.55;64.63;99501.91;130068;1090;113808;-57
2021/07/12 03:21:00;;;;;;;14.75;9.25;;;;;;;22.64;65.18;99510.20;130202;1088;22610;-57
2021/07/12 03:23:35;;;;;;;10.13;9.13;;;;;;;22.71;65.48;99504.90;130324;1090;114303;-57
2021/07/12 03:26:05;;;;;;;10.15;8.98;;;;;;;22.77;65.85;99514.70;130246;1090;22616;-56
2021/07/12 03:28:34;;;;;;;18.13;9.23;;;;;;;22.84;65.90;99506.62;130073;1089;113892;-57
2021/07/12 03:31:04;;;;;;;11.20;8.93;;;;;;;22.88;65.45;99502.83;130449;1088;22562;-57
2021/07/12 03:33:34;;;;;;;16.43;9.15;;;;;;;22.96;64.73;99497.52;130177;1088;22555;-57
2021/07/12 03:36:04;;;;;;;11.78;8.35;;;;;;;23.04;64.65;99504.98;130038;1090;113936;-57
2021/07/12 03:38:33;;;;;;;21.63;9.43;;;;;;;23.13;65.05;99511.27;130475;1090;22546;-57
2021/07/12 03:41:04;;;;;;;32.83;10.43;;;;;;;23.22;66.39;99498.92;130074;1089;114183;-57
2021/07/12 03:43:33;;;;;;;22.90;9.80;;;;;;;23.31;66.06;99500.80;130476;1089;22617;-57
2021/07/12 03:46:03;;;;;;;27.38;10.38;;;;;;;23.39;65.30;99511.81;130486;1089;22558;-57
2021/07/12 03:48:39;;;;;;;26.00;10.90;;;;;;;23.47;66.14;99516.48;130389;1089;113907;-57
2021/07/12 03:51:13;;;;;;;;;;;;;;;23.56;64.97;99508.06;130393;1089;23081;-57
2021/07/12 03:53:43;;;;;;;15.90;11.90;;;;;;;23.64;63.65;99517.48;130351;1090;100307;-56
2021/07/12 03:56:12;;;;;;;16.18;9.78;;;;;;;23.72;63.23;99517.37;130283;1088;22486;-56
2021/07/12 03:58:41;;;;;;;10.20;7.65;;;;;;;23.81;62.93;99517.25;130366;1090;113963;-57
2021/07/12 04:01:10;;;;;;;11.83;8.85;;;;;;;23.90;62.95;99513.22;130392;1088;22541;-57
2021/07/12 04:03:40;;;;;;;12.58;8.33;;;;;;;24.03;62.64;99518.79;130484;1089;22659;-60
2021/07/12 04:06:08;;;;;;;10.23;8.85;;;;;;;24.14;61.84;99515.19;130387;1089;114255;-58
2021/07/12 04:08:37;;;;;;;9.28;8.05;;;;;;;24.24;61.06;99506.39;130484;1088;22551;-57
2021/07/12 04:11:06;;;;;;;12.75;8.25;;;;;;;24.34;60.88;99498.74;130387;1088;114176;-57
2021/07/12 04:13:36;;;;;;;9.28;7.90;;;;;;;24.44;60.21;99495.47;130484;1090;22601;-57
2021/07/12 04:16:15;;;;;;;9.45;8.33;;;;;;;24.53;60.04;99496.13;130474;1090;22664;-57
2021/07/12 04:18:44;;;;;;;10.43;8.10;;;;;;;24.60;59.60;99488.82;130376;1088;113351;-57
2021/07/12 04:21:14;;;;;;;15.65;9.53;;;;;;;24.68;58.85;99498.19;130460;1090;22583;-58
2021/07/12 04:23:47;;;;;;;11.85;9.10;;;;;;;24.74;59.41;99510.73;130382;1089;114084;-57
2021/07/12 04:26:16;;;;;;;12.25;9.13;;;;;;;24.80;59.43;99509.33;130488;1088;23255;-57
2021/07/12 04:28:45;;;;;;;84.50;14.30;;;;;;;24.88;59.42;99504.76;130388;1089;113944;-57
2021/07/12 04:31:14;;;;;;;15.78;8.13;;;;;;;24.92;59.17;99503.71;130493;1089;22545;-57
2021/07/12 04:33:43;;;;;;;11.38;7.98;;;;;;;24.97;58.38;99500.68;130434;1089;22552;-57
2021/07/12 04:36:13;;;;;;;9.38;8.05;;;;;;;25.03;58.34;99497.66;130358;1089;113914;-57
2021/07/12 04:38:42;;;;;;;11.75;8.08;;;;;;;25.05;57.45;99495.33;130464;1088;23688;-57
2021/07/12 04:41:11;;;;;;;12.78;7.98;;;;;;;25.07;56.82;99493.00;130229;1090;114160;-57
2021/07/12 04:43:40;;;;;;;10.85;7.45;;;;;;;25.03;56.97;99495.67;130436;1088;22566;-57
2021/07/12 04:46:09;;;;;;;14.58;8.23;;;;;;;25.06;57.14;99505.31;130495;1089;22705;-57
2021/07/12 04:48:40;;;;;;;10.83;7.83;;;;;;;25.06;57.04;99499.73;130364;1089;113883;-57
2021/07/12 04:51:08;;;;;;;26.80;9.28;;;;;;;25.06;57.03;99505.31;130487;1088;23344;-57
2021/07/12 04:53:37;;;;;;;11.55;8.28;;;;;;;25.06;56.37;99502.52;130373;1088;113942;-57
2021/07/12 04:56:08;;;;;;;12.48;7.05;;;;;;;25.06;56.35;99503.34;130504;1089;22536;-57
2021/07/12 04:58:43;;;;;;;10.95;6.98;;;;;;;25.06;55.97;99506.13;130361;1089;115496;-57
2021/07/12 05:01:12;;;;;;;11.25;7.23;;;;;;;25.07;56.06;99512.52;130512;1089;22558;-57
2021/07/12 05:03:41;;;;;;;9.33;7.25;;;;;;;25.06;55.80;99508.91;130480;1090;22546;-57
2021/07/12 05:06:10;;;;;;;10.70;7.48;;;;;;;25.09;56.33;99502.63;130357;1089;116136;-57
2021/07/12 05:08:39;;;;;;;14.55;7.65;;;;;;;25.12;55.57;99510.27;130438;1089;22584;-57
2021/07/12 05:11:08;;;;;;;12.13;7.45;;;;;;;25.17;55.46;99504.44;130362;1089;114516;-57
2021/07/12 05:13:38;;;;;;;13.15;7.28;;;;;;;25.24;55.29;99515.00;130532;1090;22524;-58
2021/07/12 05:16:15;;;;;;;13.38;7.25;;;;;;;25.33;55.19;99505.30;130494;1089;22640;-57
2021/07/12 05:18:49;;;;;;;8.85;6.40;;;;;;;25.47;54.73;99498.48;130397;1090;113794;-57
2021/07/12 05:21:18;;;;;;;9.58;6.60;;;;;;;25.61;54.62;99505.28;130413;1089;22557;-58
2021/07/12 05:23:47;;;;;;;8.30;6.45;;;;;;;25.76;54.05;99505.64;130405;1089;114155;-56
2021/07/12 05:26:16;;;;;;;6.98;6.23;;;;;;;25.86;53.64;99496.72;130477;1089;22576;-57
2021/07/12 05:28:45;;;;;;;9.08;7.43;;;;;;;25.99;53.96;99504.64;130380;1090;114112;-57
2021/07/12 05:31:14;;;;;;;21.20;7.40;;;;;;;26.17;53.78;99502.29;130511;1089;23395;-57
2021/07/12 05:33:44;;;;;;;12.38;7.20;;;;;;;26.43;53.01;99500.91;130455;1089;22585;-57
2021/07/12 05:36:14;;;;;;;8.70;6.50;;;;;;;26.61;52.00;99500.15;130382;1090;114522;-57
2021/07/12 05:38:42;;;;;;;10.98;6.95;;;;;;;26.71;51.99;99518.32;130477;1088;22507;-57
2021/07/12 05:41:12;;;;;;;11.28;6.85;;;;;;;26.75;51.71;99517.23;130402;1090;114304;-57
2021/07/12 05:43:41;;;;;;;9.70;7.10;;;;;;;26.76;51.01;99515.25;130494;1088;22562;-57
2021/07/12 05:46:11;;;;;;;11.33;7.13;;;;;;;26.72;51.23;99517.15;130447;1088;22539;-58
2021/07/12 05:48:41;;;;;;;15.25;7.70;;;;;;;26.68;51.73;99516.28;130357;1089;114207;-57
2021/07/12 05:51:09;;;;;;;13.48;7.63;;;;;;;26.65;52.20;99522.59;130470;1090;23067;-57
2021/07/12 05:53:38;;;;;;;10.33;6.95;;;;;;;26.63;51.69;99516.55;130336;1090;115667;-57
2021/07/12 05:56:07;;;;;;;12.90;7.33;;;;;;;26.61;51.43;99516.92;130536;1090;22530;-56
2021/07/12 05:58:36;;;;;;;9.05;7.33;;;;;;;26.66;51.32;99511.05;130276;1090;114738;-57
2021/07/12 06:01:05;;;;;;;11.00;6.73;;;;;;;26.79;51.51;99519.30;130478;1090;23031;-56
2021/07/12 06:03:34;;;;;;;7.58;6.83;;;;;;;26.90;51.98;99518.34;130446;1090;22519;-58
2021/07/12 06:06:03;;;;;;;9.28;7.90;;;;;;;27.01;51.04;99519.41;130346;1090;113741;-56
2021/07/12 06:08:34;;;;;;;11.03;7.43;;;;;;;27.09;51.25;99520.38;130144;1090;22609;-57
2021/07/12 06:11:04;;;;;;;13.43;7.65;;;;;;;27.13;51.84;99520.43;130319;1089;115283;-57
2021/07/12 06:13:33;;;;;;;10.40;7.35;;;;;;;27.16;51.59;99522.49;130466;1088;22544;-59
2021/07/12 06:16:03;;;;;;;10.15;7.73;;;;;;;27.21;51.61;99525.00;130412;1088;23062;-56
2021/07/12 06:18:32;;;;;;;14.30;8.45;;;;;;;27.28;52.12;99519.54;130364;1090;114531;-58
2021/07/12 06:21:00;;;;;;;13.18;7.93;;;;;;;27.35;51.63;99525.28;130424;1090;22544;-58
2021/07/12 06:23:32;;;;;;;14.45;8.45;;;;;;;27.34;51.68;99530.08;130335;1088;115124;-58
2021/07/12 06:26:01;;;;;;;9.73;7.78;;;;;;;27.30;52.13;99542.36;130469;1090;22515;-58
2021/07/12 06:28:30;;;;;;;11.28;8.38;;;;;;;27.19;52.17;99539.36;130334;1088;115278;-58
2021/07/12 06:30:59;;;;;;;15.08;9.38;;;;;;;27.10;52.58;99545.19;130437;1090;22604;-58
2021/07/12 06:33:29;;;;;;;12.10;8.35;;;;;;;27.01;52.76;99552.97;130488;1087;22535;-58
2021/07/12 06:35:58;;;;;;;10.28;8.60;;;;;;;26.90;53.28;99557.50;130373;1087;114077;-57
2021/07/12 06:38:29;;;;;;;10.58;8.68;;;;;;;26.80;53.58;99554.47;130429;1087;23381;-57
2021/07/12 06:40:58;;;;;;;15.95;9.93;;;;;;;26.70;54.18;99553.84;130399;1087;114472;-57
2021/07/12 06:43:27;;;;;;;14.85;9.80;;;;;;;26.60;54.92;99565.60;130493;1087;23162;-57
2021/07/12 06:45:59;;;;;;;18.90;9.95;;;;;;;26.50;54.88;99568.16;130507;1088;23785;-57
2021/07/12 06:48:28;;;;;;;16.98;10.68;;;;;;;26.37;55.83;99562.68;130413;1087;114446;-57
2021/07/12 06:51:09;;;;;;;16.23;9.93;;;;;;;26.25;56.27;99561.95;130509;1090;22558;-57
2021/07/12 06:53:38;;;;;;;20.83;10.98;;;;;;;26.15;56.53;99565.27;130375;1087;114088;-57
2021/07/12 06:56:06;;;;;;;16.10;10.20;;;;;;;26.06;56.60;99566.27;130498;1087;22544;-57
2021/07/12 06:58:36;;;;;;;20.13;11.10;;;;;;;25.97;57.21;99568.41;130421;1087;114343;-57
2021/07/12 07:01:05;;;;;;;37.28;20.73;;;;;;;25.89;57.33;99560.22;130493;1089;22532;-57
2021/07/12 07:03:34;;;;;;;24.20;11.43;;;;;;;25.80;56.95;99568.78;130488;1087;22593;-57
2021/07/12 07:06:05;;;;;;;14.15;9.73;;;;;;;25.69;57.72;99568.47;130365;1088;114209;-57
2021/07/12 07:08:35;;;;;;;17.25;10.45;;;;;;;25.62;58.21;99559.11;130505;1090;22589;-57
2021/07/12 07:11:09;;;;;;;18.40;11.10;;;;;;;25.57;58.38;99539.80;130361;1087;114653;-57
2021/07/12 07:13:40;;;;;;;17.70;10.93;;;;;;;25.53;58.74;99536.13;130516;1088;23337;-57
2021/07/12 07:16:09;;;;;;;17.35;11.38;;;;;;;25.51;58.85;99542.05;130481;1087;22555;-57
2021/07/12 07:18:51;;;;;;;13.63;10.45;;;;;;;25.49;58.89;99552.75;130361;1087;113914;-57
2021/07/12 07:21:20;;;;;;;14.25;12.18;;;;;;;25.47;59.23;99537.53;130491;1087;22996;-57
2021/07/12 07:23:48;;;;;;;17.08;10.10;;;;;;;25.48;59.60;99539.97;130407;1087;114432;-58
2021/07/12 07:26:18;;;;;;;15.43;9.90;;;;;;;25.49;60.04;99543.58;130467;1087;22556;-58
2021/07/12 07:28:47;;;;;;;11.60;9.38;;;;;;;25.50;59.90;99548.80;130363;1087;113917;-57
2021/07/12 07:31:16;;;;;;;12.40;9.70;;;;;;;25.48;59.49;99553.92;130462;1087;22536;-57
2021/07/12 07:33:45;;;;;;;12.35;9.75;;;;;;;25.47;60.12;99557.06;130444;1088;22539;-57
2021/07/12 07:36:16;;;;;;;19.18;13.15;;;;;;;25.43;60.61;99556.95;130386;1087;113924;-58
2021/07/12 07:38:45;;;;;;;20.78;10.93;;;;;;;25.42;60.63;99554.52;130521;1087;23345;-58
2021/07/12 07:41:14;;;;;;;24.70;11.13;;;;;;;25.40;60.96;99560.45;130374;1087;114167;-57
2021/07/12 07:43:44;;;;;;;11.35;10.10;;;;;;;25.41;61.58;99561.27;130486;1087;22560;-57
2021/07/12 07:46:13;;;;;;;21.50;10.80;;;;;;;25.40;61.48;99559.64;130457;1090;22555;-57
2021/07/12 07:48:44;;;;;;;15.90;11.05;;;;;;;25.40;61.20;99565.22;130349;1087;113995;-57
2021/07/12 07:51:13;;;;;;;27.93;12.80;;;;;;;25.41;61.56;99561.27;130468;1087;22505;-57
2021/07/12 07:53:42;;;;;;;28.23;12.95;;;;;;;25.45;61.85;99567.77;130374;1090;114126;-57
2021/07/12 07:56:11;;;;;;;12.33;10.60;;;;;;;25.53;62.19;99566.81;130476;1088;22630;-57
2021/07/12 07:58:40;;;;;;;14.48;10.90;;;;;;;25.61;61.83;99563.88;130360;1089;114617;-57
2021/07/12 08:01:09;;;;;;;12.23;10.90;;;;;;;25.65;61.32;99564.80;130411;1087;22519;-58
2021/07/12 08:03:38;;;;;;;12.55;11.20;;;;;;;25.71;61.42;99556.95;130479;1087;22546;-58
2021/07/12 08:06:07;;;;;;;13.73;11.88;;;;;;;25.78;61.29;99561.92;130253;1090;114215;-57
2021/07/12 08:08:37;;;;;;;14.93;11.03;;;;;;;25.81;60.94;99564.82;130487;1088;22591;-57
2021/07/12 08:11:14;;;;;;;14.23;11.80;;;;;;;25.86;61.09;99564.53;130359;1087;114282;-57
2021/07/12 08:13:43;;;;;;;37.40;14.78;;;;;;;25.91;61.39;99569.05;130481;1087;23309;-57
2021/07/12 08:16:13;;;;;;;45.68;14.93;;;;;;;25.99;61.70;99563.28;130486;1090;22529;-57
2021/07/12 08:18:55;;;;;;;14.15;11.18;;;;;;;26.10;60.91;99560.78;130387;1087;114314;-58
2021/07/12 08:21:24;;;;;;;13.88;10.60;;;;;;;26.22;61.04;99555.09;130477;1087;22537;-57
2021/07/12 08:23:54;;;;;;;11.45;10.00;;;;;;;26.36;59.85;99551.86;130347;1087;114572;-57
2021/07/12 08:26:23;;;;;;;13.48;10.45;;;;;;;26.50;58.94;99551.39;130493;1087;22558;-57
2021/07/12 08:28:52;;;;;;;14.78;10.38;;;;;;;26.59;58.45;99551.98;130386;1087;114461;-57
2021/07/12 08:31:22;;;;;;;12.18;10.90;;;;;;;26.67;58.58;99551.00;130452;1087;22580;-57
2021/07/12 08:33:51;;;;;;;12.63;10.20;;;;;;;26.75;58.28;99535.99;130473;1087;22618;-57
2021/07/12 08:36:19;;;;;;;12.15;9.60;;;;;;;26.84;57.53;99533.78;130391;1087;113987;-57
2021/07/12 08:38:50;;;;;;;13.68;10.38;;;;;;;26.93;58.10;99530.79;130477;1087;22573;-57
2021/07/12 08:41:21;;;;;;;14.35;10.35;;;;;;;26.98;57.94;99525.73;130362;1087;113938;-57
2021/07/12 08:43:53;;;;;;;12.90;10.38;;;;;;;27.02;57.83;99523.83;130498;1090;22798;-57
2021/07/12 08:46:22;;;;;;;14.80;10.88;;;;;;;27.01;57.27;99522.20;130496;1087;23598;-57
2021/07/12 08:48:51;;;;;;;21.93;11.95;;;;;;;27.09;57.25;99520.38;130301;1088;114372;-57
2021/07/12 08:51:21;;;;;;;17.25;11.33;;;;;;;27.11;56.84;99526.42;130518;1088;23292;-57
2021/07/12 08:53:50;;;;;;;14.45;11.15;;;;;;;27.10;56.74;99528.41;130371;1087;114119;-57
2021/07/12 08:56:19;;;;;;;12.57;10.33;;;;;;;27.08;56.23;99521.55;130450;1087;22539;-56
2021/07/12 08:58:49;;;;;;;13.45;11.75;;;;;;;27.06;56.62;99515.52;130368;1087;114101;-57
2021/07/12 09:01:18;;;;;;;15.30;11.15;;;;;;;27.07;57.09;99523.55;130476;1087;22547;-57
2021/07/12 09:03:50;;;;;;;11.53;10.13;;;;;;;27.09;56.45;99520.38;130495;1087;22566;-57
2021/07/12 09:06:35;;;;;;;11.13;10.03;;;;;;;27.13;56.26;99528.82;130392;1087;113961;-57
2021/07/12 09:09:06;;;;;;;14.55;9.80;;;;;;;27.16;56.49;99523.30;130512;1087;22616;-57
2021/07/12 09:11:43;;;;;;;13.00;10.35;;;;;;;27.21;55.88;99527.80;130400;1087;113945;-57
2021/07/12 09:14:13;;;;;;;12.05;10.65;;;;;;;27.22;56.14;99527.44;130504;1089;22541;-57
2021/07/12 09:17:01;;;;;;;13.35;10.50;;;;;;;27.35;56.32;99528.09;130379;1087;114294;-57
2021/07/12 09:19:37;;;;;;;11.33;10.00;;;;;;;27.45;56.58;99530.27;130452;1087;22632;-57
2021/07/12 09:22:06;;;;;;;20.20;11.35;;;;;;;27.54;55.98;99536.46;130439;1087;22586;-57
2021/07/12 09:24:51;;;;;;;13.03;9.83;;;;;;;27.64;56.26;99538.67;130398;1089;114122;-56
2021/07/12 09:27:24;;;;;;;11.25;10.13;;;;;;;27.75;56.54;99539.67;130513;1087;23030;-57
2021/07/12 09:29:54;;;;;;;15.03;9.75;;;;;;;27.84;55.00;99544.23;130409;1087;116013;-57
2021/07/12 09:32:25;;;;;;;12.20;10.00;;;;;;;27.89;54.24;99546.70;130471;1090;22553;-57
2021/07/12 09:35:07;;;;;;;19.28;11.30;;;;;;;27.93;55.21;99553.19;130353;1088;114425;-57
2021/07/12 09:37:40;;;;;;;13.88;9.83;;;;;;;28.00;54.76;99550.50;130433;1089;22583;-57
2021/07/12 09:40:14;;;;;;;15.08;10.38;;;;;;;28.07;54.68;99556.23;130490;1087;22596;-57
2021/07/12 09:42:47;;;;;;;15.48;10.85;;;;;;;28.12;53.99;99553.13;130361;1087;116561;-57
2021/07/12 09:45:28;;;;;;;14.28;10.78;;;;;;;28.14;53.63;99547.94;130454;1087;22594;-57
2021/07/12 09:48:05;;;;;;;13.58;10.35;;;;;;;28.18;54.06;99553.61;130326;1087;114082;-57
2021/07/12 09:50:34;;;;;;;;;;;;;;;28.20;53.81;99556.88;130493;1088;22561;-57
2021/07/12 09:53:04;;;;;;;14.93;10.03;;;;;;;28.20;53.32;99562.48;130365;1087;100300;-57
2021/07/12 09:55:35;;;;;;;25.93;10.23;;;;;;;28.20;53.72;99559.68;130472;1090;22601;-57
2021/07/12 09:58:16;;;;;;;13.25;9.40;;;;;;;28.23;53.80;99558.94;130460;1087;23400;-57
2021/07/12 10:00:48;;;;;;;13.30;9.90;;;;;;;28.25;53.66;99557.38;130354;1087;114098;-57
2021/07/12 10:03:21;;;;;;;33.20;11.93;;;;;;;28.28;53.98;99569.84;130469;1087;22544;-57
2021/07/12 10:05:51;;;;;;;11.78;10.10;;;;;;;28.28;52.73;99570.62;130371;1090;114641;-56
2021/07/12 10:08:22;;;;;;;12.05;10.15;;;;;;;28.24;52.87;99564.17;130464;1087;22534;-57
2021/07/12 10:10:51;;;;;;;14.40;11.00;;;;;;;28.22;53.36;99560.92;130361;1090;114572;-57
2021/07/12 10:13:21;;;;;;;16.05;10.80;;;;;;;28.18;53.24;99553.61;130454;1088;22536;-57
2021/07/12 10:15:50;;;;;;;12.98;9.18;;;;;;;28.13;53.46;99561.13;130471;1087;23153;-57
2021/07/12 10:18:19;;;;;;;19.63;9.93;;;;;;;28.12;53.86;99562.34;130355;1088;113769;-57
2021/07/12 10:20:48;;;;;;;15.13;7.30;;;;;;;28.08;51.41;99561.47;130516;1087;23223;-57
2021/07/12 10:23:17;;;;;;;10.55;6.50;;;;;;;28.05;50.32;99567.00;130369;1089;114220;-57
2021/07/12 10:25:46;;;;;;;11.83;7.00;;;;;;;28.00;50.44;99559.70;130466;1090;22616;-57
2021/07/12 10:28:40;;;;;;;8.23;6.38;;;;;;;27.95;50.75;99556.43;130508;1087;22569;-57
2021/07/12 10:31:17;;;;;;;10.00;6.28;;;;;;;27.90;50.85;99554.73;130377;1087;113490;-57
2021/07/12 10:33:46;;;;;;;9.23;7.18;;;;;;;27.86;51.21;99556.66;130453;1087;22553;-57
2021/07/12 10:36:37;;;;;;;12.83;7.30;;;;;;;27.82;51.09;99558.61;130364;1087;114343;-57
2021/07/12 10:39:06;;;;;;;52.85;42.78;;;;;;;27.77;50.37;99551.31;130481;1088;22520;-55
2021/07/12 10:41:46;;;;;;;29.43;14.48;;;;;;;27.75;51.00;99545.27;130370;1087;114410;-57
2021/07/12 10:44:15;;;;;;;11.23;7.48;;;;;;;27.72;51.99;99548.00;130440;1090;22584;-57
2021/07/12 10:46:46;;;;;;;12.25;7.53;;;;;;;27.68;52.04;99533.95;130301;1087;114551;-58
2021/07/12 10:49:37;;;;;;;21.23;8.65;;;;;;;27.64;51.71;99530.28;130421;1087;22551;-57
2021/07/12 10:52:06;;;;;;;11.63;7.60;;;;;;;27.60;52.50;99528.58;130412;1089;22565;-59
2021/07/12 10:54:58;;;;;;;8.03;7.23;;;;;;;27.54;51.90;99519.67;130309;1090;115093;-58
2021/07/12 10:57:28;;;;;;;12.28;6.75;;;;;;;27.50;52.33;99515.98;130440;1090;23316;-58
2021/07/12 11:00:09;;;;;;;16.98;8.30;;;;;;;27.48;52.18;99509.95;130312;1087;113829;-58
2021/07/12 11:02:40;;;;;;;21.15;8.33;;;;;;;27.46;52.45;99504.72;130425;1089;23384;-58
2021/07/12 11:05:15;;;;;;;19.00;8.58;;;;;;;27.44;53.27;99497.87;130360;1087;114092;-58
2021/07/12 11:07:46;;;;;;;8.18;7.35;;;;;;;27.42;52.85;99495.44;130398;1088;22641;-58
2021/07/12 11:10:24;;;;;;;12.35;8.00;;;;;;;27.39;52.92;99489.80;130416;1087;22564;-58
2021/07/12 11:13:13;;;;;;;17.68;8.28;;;;;;;27.34;52.99;99476.91;130321;1087;113620;-58
2021/07/12 11:15:45;;;;;;;19.88;8.45;;;;;;;27.34;53.50;99471.31;130443;1087;22504;-58
2021/07/12 11:18:34;;;;;;;10.40;8.08;;;;;;;27.36;53.27;99473.74;130303;1087;113801;-58
2021/07/12 11:21:06;;;;;;;14.08;7.40;;;;;;;27.37;53.67;99469.77;130427;1087;22555;-58
2021/07/12 11:23:35;;;;;;;10.25;8.23;;;;;;;27.38;53.23;99461.00;130326;1088;114049;-58
2021/07/12 11:26:34;;;;;;;16.38;7.68;;;;;;;27.39;52.86;99465.42;130427;1089;22544;-58
2021/07/12 11:29:16;;;;;;;8.70;7.40;;;;;;;27.40;52.50;99457.84;129898;1090;114102;-58
2021/07/12 11:31:57;;;;;;;10.38;7.68;;;;;;;27.41;52.51;99465.83;129993;1090;22662;-58
2021/07/12 11:34:39;;;;;;;11.03;8.83;;;;;;;27.42;52.36;99472.23;129991;1089;22587;-58
2021/07/12 11:37:11;;;;;;;11.35;7.65;;;;;;;27.41;52.05;99479.83;129954;1090;114593;-58